Time;durP1;ratioP1;P1;durP2;ratioP2;P2;SDS_P1;SDS_P2;PMS_P1;PMS_P2;Temp;Humidity;BMP_temperature;BMP_pressure;BME280_temperature;BME280_humidity;BME280_pressure;Samples;Min_cycle;Max_cycle;Signal;HPM_P1;HPM_P2
2021/06/10 00:01:59;;;;;;;12.82;9.93;;;21.90;99.90;;;;;;1832821;77;21160;-76
2021/06/10 00:04:27;;;;;;;11.75;9.20;;;21.90;99.90;;;;;;1818904;77;21081;-77
2021/06/10 00:06:54;;;;;;;10.35;8.55;;;21.90;99.90;;;;;;1829687;77;21191;-78
2021/06/10 00:09:22;;;;;;;12.65;9.28;;;21.90;99.90;;;;;;1888139;74;21069;-76
2021/06/10 00:11:49;;;;;;;15.83;9.70;;;21.90;99.90;;;;;;1830590;77;21083;-78
2021/06/10 00:14:18;;;;;;;11.43;8.33;;;21.90;99.90;;;;;;1879448;76;22209;-79
2021/06/10 00:16:45;;;;;;;10.93;9.23;;;21.90;99.90;;;;;;1822813;77;21733;-80
2021/06/10 00:19:13;;;;;;;11.38;9.58;;;21.90;99.90;;;;;;1892039;76;21775;-78
2021/06/10 00:21:41;;;;;;;10.13;8.90;;;21.90;99.90;;;;;;1820587;77;21122;-78
2021/06/10 00:24:09;;;;;;;13.03;9.58;;;21.90;99.90;;;;;;1896388;74;21088;-78
2021/06/10 00:26:37;;;;;;;13.53;9.50;;;21.90;99.90;;;;;;1845396;77;21069;-77
2021/06/10 00:29:05;;;;;;;11.28;9.98;;;21.80;99.90;;;;;;1868991;76;21144;-79
2021/06/10 00:31:33;;;;;;;11.57;9.78;;;21.80;99.90;;;;;;1836785;76;21090;-79
2021/06/10 00:34:01;;;;;;;12.35;9.28;;;21.80;99.90;;;;;;1820524;77;21190;-77
2021/06/10 00:36:29;;;;;;;11.55;10.08;;;21.80;99.90;;;;;;1833310;76;21192;-80
2021/06/10 00:38:56;;;;;;;18.10;8.95;;;21.80;99.90;;;;;;1876095;75;21120;-77
2021/06/10 00:41:24;;;;;;;12.07;10.08;;;21.80;99.90;;;;;;1821501;77;22097;-79
2021/06/10 00:43:51;;;;;;;13.72;9.38;;;21.80;99.90;;;;;;1871892;76;21171;-78
2021/06/10 00:46:19;;;;;;;11.48;9.23;;;21.80;99.90;;;;;;1842448;77;21094;-78
2021/06/10 00:48:46;;;;;;;10.72;8.98;;;21.80;99.90;;;;;;1903305;74;21610;-77
2021/06/10 00:51:14;;;;;;;12.78;9.20;;;21.80;99.90;;;;;;1844139;77;21110;-78
2021/06/10 00:53:41;;;;;;;12.63;9.28;;;21.70;99.90;;;;;;1879125;74;21104;-77
2021/06/10 00:56:11;;;;;;;13.62;10.00;;;21.70;99.90;;;;;;1824961;77;21554;-77
2021/06/10 00:58:38;;;;;;;10.70;9.40;;;21.70;99.90;;;;;;1819530;77;21140;-78
2021/06/10 01:01:06;;;;;;;14.28;9.50;;;21.60;99.90;;;;;;1842583;76;21097;-77
2021/06/10 01:03:33;;;;;;;13.85;9.75;;;21.60;99.90;;;;;;1879279;76;21087;-78
2021/06/10 01:06:09;;;;;;;12.40;9.53;;;21.60;99.90;;;;;;1837747;77;21161;-77
2021/06/10 01:08:52;;;;;;;13.15;9.50;;;21.60;99.90;;;;;;1858958;74;21223;-78
2021/06/10 01:11:28;;;;;;;11.40;9.05;;;21.50;99.90;;;;;;1821965;77;21195;-75
2021/06/10 01:14:09;;;;;;;16.57;9.18;;;21.50;99.90;;;;;;1878940;76;21085;-76
2021/06/10 01:16:40;;;;;;;14.25;9.23;;;21.40;99.90;;;;;;1889710;75;21168;-77
2021/06/10 01:19:20;;;;;;;9.60;8.60;;;21.40;99.90;;;;;;1885521;76;21133;-77
2021/06/10 01:21:49;;;;;;;10.45;8.88;;;21.30;99.90;;;;;;1887359;76;21045;-81
2021/06/10 01:24:34;;;;;;;13.32;9.45;;;21.30;99.90;;;;;;1882601;74;21049;-81
2021/06/10 01:27:22;;;;;;;11.20;9.18;;;21.30;99.90;;;;;;1880261;76;21084;-78
2021/06/10 01:29:52;;;;;;;10.58;9.48;;;21.20;99.90;;;;;;1865153;76;21162;-79
2021/06/10 01:32:21;;;;;;;11.73;9.33;;;21.20;99.90;;;;;;1848009;77;21159;-80
2021/06/10 01:34:50;;;;;;;11.43;8.93;;;21.20;99.90;;;;;;1892264;76;21193;-77
2021/06/10 01:37:19;;;;;;;11.70;8.75;;;21.20;99.90;;;;;;1845425;77;21109;-76
2021/06/10 01:39:49;;;;;;;9.30;8.30;;;21.20;99.90;;;;;;1882389;74;21150;-78
2021/06/10 01:42:19;;;;;;;11.75;7.97;;;21.10;99.90;;;;;;1883583;76;21105;-79
2021/06/10 01:44:48;;;;;;;12.53;9.58;;;21.10;99.90;;;;;;1834641;77;21210;-77
2021/06/10 01:47:17;;;;;;;9.48;8.48;;;21.00;99.90;;;;;;1820176;77;21128;-78
2021/06/10 01:49:45;;;;;;;10.98;8.95;;;21.00;99.90;;;;;;1833150;76;21105;-76
2021/06/10 01:52:14;;;;;;;10.55;8.45;;;20.90;99.90;;;;;;1883019;74;21159;-76
2021/06/10 01:54:41;;;;;;;11.25;8.65;;;20.90;99.90;;;;;;1833203;77;21213;-77
2021/06/10 01:57:10;;;;;;;14.58;8.40;;;20.90;99.90;;;;;;1884007;75;21120;-77
2021/06/10 01:59:38;;;;;;;12.03;9.00;;;20.90;99.90;;;;;;1861629;74;21073;-77
2021/06/10 02:02:07;;;;;;;11.57;8.78;;;20.90;99.90;;;;;;1825507;76;21071;-75
2021/06/10 02:04:35;;;;;;;11.73;8.83;;;20.90;99.90;;;;;;1838490;76;21108;-78
2021/06/10 02:07:04;;;;;;;9.05;8.05;;;20.80;99.90;;;;;;1843288;76;21125;-79
2021/06/10 02:09:31;;;;;;;12.70;8.63;;;20.80;99.90;;;;;;1840337;77;21141;-78
2021/06/10 02:12:00;;;;;;;14.25;8.30;;;20.80;99.90;;;;;;1892193;76;21104;-79
2021/06/10 02:14:29;;;;;;;12.33;8.98;;;20.80;99.90;;;;;;1843809;77;21114;-78
2021/06/10 02:16:58;;;;;;;12.35;8.70;;;20.70;99.90;;;;;;1864654;76;21105;-78
2021/06/10 02:19:26;;;;;;;10.82;9.05;;;20.70;99.90;;;;;;1825400;76;21133;-79
2021/06/10 02:21:54;;;;;;;11.38;8.50;;;20.70;99.90;;;;;;1820668;77;21105;-77
2021/06/10 02:24:21;;;;;;;13.43;9.05;;;20.60;99.90;;;;;;1839918;76;21296;-79
2021/06/10 02:26:49;;;;;;;15.13;9.05;;;20.60;99.90;;;;;;1884251;75;21158;-79
2021/06/10 02:29:16;;;;;;;11.15;9.43;;;20.60;99.90;;;;;;1843287;76;21141;-78
2021/06/10 02:31:44;;;;;;;9.73;8.48;;;20.50;99.90;;;;;;1836473;76;21097;-79
2021/06/10 02:34:13;;;;;;;10.23;9.10;;;20.50;99.90;;;;;;1862780;76;21124;-79
2021/06/10 02:36:42;;;;;;;13.75;9.38;;;20.50;99.90;;;;;;1821346;76;22159;-79
2021/06/10 02:39:12;;;;;;;11.38;9.20;;;20.40;99.90;;;;;;1891306;74;21140;-79
2021/06/10 02:41:43;;;;;;;12.13;8.80;;;20.40;99.90;;;;;;1836144;77;21611;-79
2021/06/10 02:44:11;;;;;;;10.78;8.65;;;20.40;99.90;;;;;;1824284;77;21548;-81
2021/06/10 02:46:41;;;;;;;10.05;8.85;;;20.30;99.90;;;;;;1839761;76;21102;-79
2021/06/10 02:49:13;;;;;;;11.05;9.58;;;20.30;99.90;;;;;;1878784;74;21237;-79
2021/06/10 02:51:40;;;;;;;;;;;20.30;99.90;;;;;;1822531;77;21108;-79
2021/06/10 02:54:11;;;;;;;10.65;8.90;;;20.30;99.90;;;;;;1879797;74;20150;-78
2021/06/10 02:56:39;;;;;;;13.28;10.45;;;20.30;99.90;;;;;;1836579;77;21113;-80
2021/06/10 02:59:09;;;;;;;12.98;9.50;;;20.20;99.90;;;;;;1837311;76;21203;-80
2021/06/10 03:01:39;;;;;;;11.28;10.08;;;20.20;99.90;;;;;;1892391;74;21515;-77
2021/06/10 03:04:10;;;;;;;14.50;10.58;;;20.20;99.90;;;;;;1846166;76;21090;-79
2021/06/10 03:06:38;;;;;;;12.82;11.10;;;20.10;99.90;;;;;;1877277;74;21634;-78
2021/06/10 03:09:06;;;;;;;12.53;11.22;;;20.10;99.90;;;;;;1791718;79;21449;-78
2021/06/10 03:11:36;;;;;;;14.40;11.15;;;20.10;99.90;;;;;;1890909;76;21554;-77
2021/06/10 03:14:06;;;;;;;13.03;11.63;;;20.10;99.90;;;;;;1838662;76;21179;-77
2021/06/10 03:16:34;;;;;;;14.95;11.43;;;20.10;99.90;;;;;;1873136;76;21512;-79
2021/06/10 03:19:02;;;;;;;12.35;11.05;;;20.10;99.90;;;;;;1835445;76;21141;-78
2021/06/10 03:21:29;;;;;;;14.40;10.53;;;20.10;99.90;;;;;;1892617;74;21174;-78
2021/06/10 03:23:57;;;;;;;13.88;10.43;;;20.10;99.90;;;;;;1883130;76;21088;-79
2021/06/10 03:26:26;;;;;;;13.88;10.30;;;20.10;99.90;;;;;;1851710;76;21085;-79
2021/06/10 03:28:55;;;;;;;13.10;10.50;;;20.10;99.90;;;;;;1835328;76;21637;-79
2021/06/10 03:31:23;;;;;;;12.05;10.32;;;20.10;99.90;;;;;;1834806;77;21146;-78
2021/06/10 03:33:54;;;;;;;11.68;10.48;;;20.10;99.90;;;;;;1827462;77;21702;-78
2021/06/10 03:36:22;;;;;;;13.60;11.13;;;20.10;99.90;;;;;;1873646;74;21120;-78
2021/06/10 03:38:52;;;;;;;19.12;11.00;;;20.10;99.90;;;;;;1898250;74;21105;-77
2021/06/10 03:41:20;;;;;;;12.28;10.60;;;20.10;99.90;;;;;;1847906;76;21144;-81
2021/06/10 03:43:49;;;;;;;12.25;10.95;;;20.00;99.90;;;;;;1875889;76;21523;-78
2021/06/10 03:46:17;;;;;;;16.52;11.05;;;20.00;99.90;;;;;;1831954;77;21098;-78
2021/06/10 03:48:45;;;;;;;13.55;10.08;;;20.00;99.90;;;;;;1831599;76;22096;-80
2021/06/10 03:51:15;;;;;;;14.35;10.68;;;20.00;99.90;;;;;;1820024;76;21054;-78
2021/06/10 03:53:44;;;;;;;13.40;10.78;;;20.00;99.90;;;;;;1861576;76;21088;-77
2021/06/10 03:56:12;;;;;;;14.50;11.90;;;20.00;99.90;;;;;;1841686;77;21113;-78
2021/06/10 03:58:40;;;;;;;12.82;11.48;;;20.00;99.90;;;;;;1835959;76;21121;-77
2021/06/10 04:01:07;;;;;;;14.50;11.40;;;19.90;99.90;;;;;;1843372;76;21488;-78
2021/06/10 04:03:35;;;;;;;14.03;12.47;;;19.90;99.90;;;;;;1877007;74;21492;-78
2021/06/10 04:06:02;;;;;;;17.30;13.50;;;19.90;99.90;;;;;;1834042;77;21563;-78
2021/06/10 04:08:31;;;;;;;16.75;14.07;;;19.90;99.90;;;;;;1841781;76;21222;-77
2021/06/10 04:10:58;;;;;;;17.40;15.70;;;19.80;99.90;;;;;;1878043;74;21123;-76
2021/06/10 04:13:26;;;;;;;17.52;15.63;;;19.80;99.90;;;;;;1881261;74;21096;-78
2021/06/10 04:15:54;;;;;;;20.82;16.10;;;19.80;99.90;;;;;;1833185;76;21218;-77
2021/06/10 04:18:21;;;;;;;16.93;15.10;;;19.90;99.90;;;;;;1814738;77;21094;-79
2021/06/10 04:20:51;;;;;;;19.77;16.02;;;19.80;99.90;;;;;;1866340;76;21239;-78
2021/06/10 04:23:20;;;;;;;18.95;16.93;;;19.80;99.90;;;;;;1869788;74;21196;-78
2021/06/10 04:25:47;;;;;;;18.95;16.37;;;19.90;99.90;;;;;;1831089;76;21496;-77
2021/06/10 04:28:14;;;;;;;17.92;15.70;;;19.80;99.90;;;;;;1889281;74;21140;-78
2021/06/10 04:30:42;;;;;;;18.87;16.30;;;19.90;99.90;;;;;;1903763;74;21169;-79
2021/06/10 04:33:09;;;;;;;20.15;16.00;;;19.90;99.90;;;;;;1807981;79;22069;-81
2021/06/10 04:35:37;;;;;;;19.27;15.88;;;19.90;99.90;;;;;;1832945;77;21210;-78
2021/06/10 04:38:06;;;;;;;18.32;16.50;;;19.90;99.90;;;;;;1818800;77;21141;-77
2021/06/10 04:40:34;;;;;;;17.52;15.70;;;19.90;99.90;;;;;;1824189;76;21304;-78
2021/06/10 04:43:02;;;;;;;18.30;16.05;;;19.90;99.90;;;;;;1837609;77;21100;-77
2021/06/10 04:45:29;;;;;;;19.67;15.78;;;19.90;99.90;;;;;;1846227;76;21481;-80
2021/06/10 04:47:57;;;;;;;18.65;16.15;;;19.90;99.90;;;;;;1894700;74;21085;-77
2021/06/10 04:50:26;;;;;;;19.60;16.23;;;19.90;99.90;;;;;;1844911;76;21074;-77
2021/06/10 04:52:55;;;;;;;18.70;16.20;;;19.90;99.90;;;;;;1890622;74;22127;-78
2021/06/10 04:55:23;;;;;;;18.00;15.98;;;20.00;99.90;;;;;;1879055;74;21097;-78
2021/06/10 04:57:51;;;;;;;18.80;15.65;;;20.00;99.90;;;;;;1800462;78;21153;-77
2021/06/10 05:00:18;;;;;;;24.52;15.72;;;20.10;99.90;;;;;;1884258;76;21586;-77
2021/06/10 05:02:46;;;;;;;18.25;16.35;;;20.10;99.90;;;;;;1889335;74;21182;-78
2021/06/10 05:05:13;;;;;;;20.12;16.25;;;20.10;99.90;;;;;;1799538;77;21720;-78
2021/06/10 05:07:41;;;;;;;21.00;15.75;;;20.20;99.90;;;;;;1885553;75;21535;-78
2021/06/10 05:10:09;;;;;;;19.65;16.55;;;20.20;99.90;;;;;;1888780;76;21085;-80
2021/06/10 05:12:37;;;;;;;21.23;17.37;;;20.20;99.90;;;;;;1803138;79;21116;-77
2021/06/10 05:15:06;;;;;;;20.88;16.02;;;20.20;99.90;;;;;;1886970;74;21471;-79
2021/06/10 05:17:33;;;;;;;18.15;16.25;;;20.20;99.90;;;;;;1890816;74;21124;-78
2021/06/10 05:20:01;;;;;;;23.30;16.73;;;20.30;99.90;;;;;;1906888;74;21638;-81
2021/06/10 05:22:28;;;;;;;21.93;16.25;;;20.30;99.90;;;;;;1887420;74;21156;-79
2021/06/10 05:24:56;;;;;;;18.48;15.85;;;20.30;99.90;;;;;;1874709;74;21814;-79
2021/06/10 05:27:25;;;;;;;19.80;16.32;;;20.40;99.90;;;;;;1874388;74;21038;-80
2021/06/10 05:29:53;;;;;;;18.35;16.20;;;20.40;99.90;;;;;;1894122;74;21092;-83
2021/06/10 05:32:20;;;;;;;20.02;17.15;;;20.40;99.90;;;;;;1885237;74;21139;-82
2021/06/10 05:34:48;;;;;;;22.32;16.27;;;20.40;99.90;;;;;;1888349;74;21464;-79
2021/06/10 05:37:16;;;;;;;22.58;17.17;;;20.40;99.90;;;;;;1885161;74;21158;-80
2021/06/10 05:39:43;;;;;;;23.30;17.42;;;20.50;99.90;;;;;;1891973;74;21094;-83
2021/06/10 05:42:11;;;;;;;22.45;17.05;;;20.50;99.90;;;;;;1885364;74;21170;-80
2021/06/10 05:44:39;;;;;;;20.80;17.30;;;20.60;99.90;;;;;;1893177;76;21155;-81
2021/06/10 05:47:06;;;;;;;19.85;17.48;;;20.60;99.90;;;;;;1840878;76;21105;-78
2021/06/10 05:49:34;;;;;;;23.83;18.65;;;20.70;99.90;;;;;;1837504;76;21231;-78
2021/06/10 05:52:02;;;;;;;23.05;19.10;;;20.80;99.90;;;;;;1836438;76;21187;-79
2021/06/10 05:54:29;;;;;;;29.77;20.95;;;20.90;99.90;;;;;;1845069;76;21097;-80
2021/06/10 05:56:58;;;;;;;24.70;19.92;;;20.90;99.90;;;;;;1891657;74;21489;-80
2021/06/10 05:59:26;;;;;;;21.37;18.85;;;21.00;99.90;;;;;;1851729;76;21153;-79
2021/06/10 06:01:55;;;;;;;21.75;18.60;;;21.00;99.90;;;;;;1845571;76;21582;-77
2021/06/10 06:04:22;;;;;;;23.35;17.95;;;21.10;99.90;;;;;;1832993;76;21086;-78
2021/06/10 06:06:50;;;;;;;20.80;18.00;;;21.20;99.90;;;;;;1891320;74;21174;-77
2021/06/10 06:09:17;;;;;;;21.48;17.82;;;21.20;99.90;;;;;;1845350;76;21144;-77
2021/06/10 06:11:45;;;;;;;21.65;18.50;;;21.30;99.90;;;;;;1884023;74;21096;-77
2021/06/10 06:14:14;;;;;;;23.73;18.62;;;21.30;99.90;;;;;;1809033;77;21126;-76
2021/06/10 06:16:44;;;;;;;21.45;18.87;;;21.30;99.90;;;;;;1836743;76;21149;-78
2021/06/10 06:19:13;;;;;;;20.85;18.50;;;21.40;99.90;;;;;;1837522;76;21276;-78
2021/06/10 06:21:42;;;;;;;24.77;19.80;;;21.40;99.90;;;;;;1876436;74;21466;-77
2021/06/10 06:24:11;;;;;;;23.45;19.23;;;21.50;99.90;;;;;;1801947;78;21125;-75
2021/06/10 06:26:39;;;;;;;21.23;18.40;;;21.50;99.90;;;;;;1885226;74;21060;-80
2021/06/10 06:29:08;;;;;;;21.12;18.50;;;21.60;99.90;;;;;;1802837;79;21151;-79
2021/06/10 06:31:37;;;;;;;28.75;18.77;;;21.60;99.90;;;;;;1831663;76;21240;-78
2021/06/10 06:34:05;;;;;;;23.70;18.60;;;21.60;99.90;;;;;;1878903;74;21152;-77
2021/06/10 06:36:33;;;;;;;21.50;18.23;;;21.70;99.90;;;;;;1869680;74;21410;-77
2021/06/10 06:39:00;;;;;;;23.15;18.25;;;21.70;99.90;;;;;;1795951;79;21101;-79
2021/06/10 06:41:28;;;;;;;23.38;18.40;;;21.70;99.90;;;;;;1903195;74;21085;-78
2021/06/10 06:43:55;;;;;;;21.07;18.23;;;21.80;99.90;;;;;;1854841;76;21623;-79
2021/06/10 06:46:23;;;;;;;21.48;18.32;;;21.80;99.90;;;;;;1836773;76;21046;-78
2021/06/10 06:48:50;;;;;;;20.50;16.37;;;21.80;99.90;;;;;;1832948;76;21169;-79
2021/06/10 06:51:18;;;;;;;21.85;17.77;;;21.90;99.90;;;;;;1829801;76;21668;-79
2021/06/10 06:53:46;;;;;;;20.65;17.80;;;21.90;99.90;;;;;;1828686;76;21129;-82
2021/06/10 06:56:13;;;;;;;21.25;18.10;;;21.90;99.90;;;;;;1870314;74;21164;-78
2021/06/10 06:58:41;;;;;;;19.85;17.05;;;21.90;99.90;;;;;;1800929;78;21158;-79
2021/06/10 07:01:08;;;;;;;21.75;17.20;;;22.00;99.90;;;;;;1877861;74;21590;-79
2021/06/10 07:03:36;;;;;;;18.92;16.02;;;22.00;99.90;;;;;;1873705;74;21104;-79
2021/06/10 07:06:04;;;;;;;20.85;16.20;;;22.00;99.90;;;;;;1806192;77;21507;-78
2021/06/10 07:08:31;;;;;;;18.50;15.63;;;22.10;99.90;;;;;;1881440;74;21192;-78
2021/06/10 07:10:59;;;;;;;22.22;17.90;;;22.10;99.90;;;;;;1797727;79;21160;-78
2021/06/10 07:13:27;;;;;;;21.70;16.12;;;22.10;99.90;;;;;;1878791;74;21206;-77
2021/06/10 07:15:55;;;;;;;20.80;15.93;;;22.20;99.90;;;;;;1837435;76;21179;-75
2021/06/10 07:18:22;;;;;;;21.35;17.02;;;22.20;99.90;;;;;;1882377;74;21311;-77
2021/06/10 07:20:50;;;;;;;26.93;16.20;;;22.20;99.90;;;;;;1884420;74;21062;-79
2021/06/10 07:23:18;;;;;;;19.75;15.58;;;22.30;99.90;;;;;;1868026;76;21112;-80
2021/06/10 07:25:46;;;;;;;21.93;16.02;;;22.30;99.90;;;;;;1870811;76;21132;-77
2021/06/10 07:28:13;;;;;;;19.12;17.02;;;22.40;99.90;;;;;;1831878;77;21184;-78
2021/06/10 07:30:41;;;;;;;18.82;16.75;;;22.40;99.90;;;;;;1840198;76;21061;-79
2021/06/10 07:33:09;;;;;;;18.25;15.75;;;22.40;99.90;;;;;;1878178;74;21096;-78
2021/06/10 07:35:37;;;;;;;16.48;13.75;;;22.50;99.90;;;;;;1801508;77;21108;-77
2021/06/10 07:38:06;;;;;;;16.97;13.83;;;22.50;99.90;;;;;;1828415;76;21240;-77
2021/06/10 07:40:33;;;;;;;19.85;15.08;;;22.60;99.90;;;;;;1829635;77;21184;-77
2021/06/10 07:43:01;;;;;;;21.07;15.25;;;22.60;99.90;;;;;;1823821;76;21621;-77
2021/06/10 07:45:30;;;;;;;19.52;15.93;;;22.70;99.90;;;;;;1842130;76;21101;-78
2021/06/10 07:47:58;;;;;;;16.87;14.87;;;22.70;99.90;;;;;;1831078;77;21199;-77
2021/06/10 07:50:27;;;;;;;21.97;16.67;;;22.80;99.90;;;;;;1816880;76;21114;-78
2021/06/10 07:52:55;;;;;;;20.65;16.90;;;22.80;99.90;;;;;;1845380;76;21079;-78
2021/06/10 07:55:23;;;;;;;17.70;13.72;;;22.80;99.90;;;;;;1831700;76;21058;-78
2021/06/10 07:57:51;;;;;;;21.97;15.08;;;22.90;99.90;;;;;;1841130;77;21240;-77
2021/06/10 08:00:20;;;;;;;17.30;14.43;;;23.00;99.90;;;;;;1829519;76;21395;-78
2021/06/10 08:02:47;;;;;;;18.37;14.53;;;23.00;99.90;;;;;;1826959;78;21176;-78
2021/06/10 08:05:15;;;;;;;17.35;13.53;;;23.10;99.90;;;;;;1826653;78;22196;-77
2021/06/10 08:07:43;;;;;;;15.35;13.05;;;23.10;99.90;;;;;;1827161;76;21432;-77
2021/06/10 08:10:13;;;;;;;18.50;14.33;;;23.20;99.90;;;;;;1829044;76;21262;-76
2021/06/10 08:12:40;;;;;;;15.43;12.55;;;23.20;99.90;;;;;;1828415;76;21098;-77
2021/06/10 08:15:08;;;;;;;16.97;13.40;;;23.30;99.90;;;;;;1840521;76;21174;-76
2021/06/10 08:17:36;;;;;;;18.48;15.60;;;23.30;99.90;;;;;;1826705;76;21709;-79
2021/06/10 08:20:09;;;;;;;16.67;14.63;;;23.40;99.90;;;;;;1822966;76;21646;-78
2021/06/10 08:22:37;;;;;;;17.52;15.10;;;23.40;99.90;;;;;;1834421;76;21157;-78
2021/06/10 08:25:07;;;;;;;18.25;14.53;;;23.40;99.90;;;;;;1883821;74;21385;-76
2021/06/10 08:27:36;;;;;;;18.35;14.75;;;23.40;99.90;;;;;;1802415;79;21164;-77
2021/06/10 08:30:06;;;;;;;18.80;15.10;;;23.40;99.90;;;;;;1885101;74;21130;-74
2021/06/10 08:32:33;;;;;;;19.32;14.70;;;23.50;99.90;;;;;;1885877;74;21131;-75
2021/06/10 08:35:01;;;;;;;20.37;15.50;;;23.60;99.90;;;;;;1797779;79;21120;-75
2021/06/10 08:37:28;;;;;;;26.40;18.60;;;23.70;99.90;;;;;;1892368;74;21142;-76
2021/06/10 08:39:56;;;;;;;22.42;16.82;;;23.70;99.90;;;;;;1877016;76;21123;-75
2021/06/10 08:42:23;;;;;;;18.50;16.07;;;23.70;99.90;;;;;;1807023;77;21741;-77
2021/06/10 08:44:53;;;;;;;19.02;15.63;;;23.70;99.90;;;;;;1875739;76;21112;-77
2021/06/10 08:47:21;;;;;;;20.77;14.78;;;23.80;99.90;;;;;;1796781;79;21105;-76
2021/06/10 08:49:50;;;;;;;22.60;17.07;;;23.80;99.90;;;;;;1799616;79;21781;-77
2021/06/10 08:52:17;;;;;;;19.20;15.88;;;23.80;99.90;;;;;;1870972;74;21109;-77
2021/06/10 08:54:45;;;;;;;21.62;15.00;;;23.90;99.90;;;;;;1894116;74;21221;-78
2021/06/10 08:57:12;;;;;;;23.30;18.32;;;23.90;99.90;;;;;;1881952;74;21129;-77
2021/06/10 08:59:40;;;;;;;18.92;15.03;;;23.90;99.90;;;;;;1874692;76;21100;-78
2021/06/10 09:02:08;;;;;;;20.80;15.88;;;24.00;99.90;;;;;;1797599;79;21061;-77
2021/06/10 09:04:35;;;;;;;17.77;15.55;;;24.10;99.90;;;;;;1843665;77;21119;-75
2021/06/10 09:07:04;;;;;;;18.52;15.72;;;24.10;99.90;;;;;;1844497;76;21747;-76
2021/06/10 09:09:36;;;;;;;18.77;15.68;;;24.20;99.90;;;;;;1840469;76;22072;-77
2021/06/10 09:12:07;;;;;;;22.35;16.07;;;24.20;99.90;;;;;;1829994;76;21102;-78
2021/06/10 09:15:05;;;;;;;17.23;15.50;;;24.30;99.90;;;;;;1848174;76;21121;-77
2021/06/10 09:17:38;;;;;;;23.95;18.48;;;24.30;99.90;;;;;;1889881;74;21145;-78
2021/06/10 09:20:28;;;;;;;20.20;16.42;;;24.20;99.90;;;;;;1797839;79;21102;-77
2021/06/10 09:22:55;;;;;;;24.27;19.98;;;24.20;99.90;;;;;;1841795;76;21121;-77
2021/06/10 09:25:25;;;;;;;18.85;15.53;;;24.20;99.90;;;;;;1820409;77;21101;-76
2021/06/10 09:27:58;;;;;;;21.60;16.57;;;24.30;99.90;;;;;;1890102;71;21251;-78
2021/06/10 09:30:36;;;;;;;23.40;18.75;;;24.40;99.90;;;;;;1880002;75;21155;-78
2021/06/10 09:33:07;;;;;;;20.37;16.25;;;24.50;99.90;;;;;;1880424;76;21117;-79
2021/06/10 09:35:37;;;;;;;21.52;15.88;;;24.50;99.90;;;;;;1837366;78;21125;-78
2021/06/10 09:38:07;;;;;;;19.57;14.87;;;24.60;99.90;;;;;;1864790;75;21122;-78
2021/06/10 09:40:36;;;;;;;22.10;19.48;;;24.80;99.90;;;;;;1839723;78;21126;-80
2021/06/10 09:43:04;;;;;;;21.57;19.20;;;24.80;99.90;;;;;;1841498;78;21067;-78
2021/06/10 09:45:33;;;;;;;21.95;19.60;;;24.80;99.90;;;;;;1837403;76;21225;-78
2021/06/10 09:48:04;;;;;;;19.65;16.42;;;24.80;99.90;;;;;;1853614;75;21149;-77
2021/06/10 09:50:45;;;;;;;18.32;15.00;;;24.90;99.90;;;;;;1839515;76;21089;-78
2021/06/10 09:53:18;;;;;;;23.85;19.70;;;25.00;99.90;;;;;;1836943;76;21051;-77
2021/06/10 09:55:52;;;;;;;20.30;18.12;;;25.00;99.90;;;;;;1841340;76;21039;-76
2021/06/10 09:58:19;;;;;;;21.52;17.37;;;25.10;99.90;;;;;;1841271;77;21137;-76
2021/06/10 10:00:50;;;;;;;20.00;17.45;;;25.10;99.90;;;;;;1841330;76;21038;-76
2021/06/10 10:03:29;;;;;;;22.70;17.95;;;25.10;99.90;;;;;;1857209;76;21067;-78
2021/06/10 10:06:01;;;;;;;20.82;16.12;;;25.00;99.90;;;;;;1854080;76;21110;-77
2021/06/10 10:08:29;;;;;;;22.37;19.60;;;25.10;99.90;;;;;;1853731;76;21193;-76
2021/06/10 10:11:02;;;;;;;21.57;19.27;;;25.10;99.90;;;;;;1838084;78;21152;-76
2021/06/10 10:13:31;;;;;;;20.43;18.25;;;25.10;99.90;;;;;;1834507;78;21107;-76
2021/06/10 10:16:00;;;;;;;25.95;22.52;;;25.20;99.90;;;;;;1845074;77;21563;-77
2021/06/10 10:18:28;;;;;;;23.75;19.45;;;25.10;99.90;;;;;;1829944;78;21137;-76
2021/06/10 10:21:01;;;;;;;20.50;17.15;;;25.10;99.90;;;;;;1840670;78;21046;-77
2021/06/10 10:23:29;;;;;;;21.37;16.23;;;25.20;99.90;;;;;;1844531;78;21220;-76
2021/06/10 10:26:02;;;;;;;22.20;16.40;;;25.20;99.90;;;;;;1844202;78;21105;-78
2021/06/10 10:28:34;;;;;;;17.60;15.75;;;25.30;99.90;;;;;;1842261;76;21122;-76
2021/06/10 10:31:03;;;;;;;20.80;18.02;;;25.30;99.90;;;;;;1843418;78;21578;-77
2021/06/10 10:33:31;;;;;;;18.80;15.03;;;25.30;99.60;;;;;;1838827;77;21074;-79
2021/06/10 10:36:02;;;;;;;20.60;17.25;;;25.40;99.90;;;;;;1843992;78;21042;-78
2021/06/10 10:38:32;;;;;;;18.12;15.30;;;25.50;99.90;;;;;;1838741;76;21678;-76
2021/06/10 10:41:05;;;;;;;16.70;14.07;;;25.50;99.90;;;;;;1852638;76;21090;-76
2021/06/10 10:43:33;;;;;;;17.30;15.55;;;25.50;99.90;;;;;;1836722;77;21143;-80
2021/06/10 10:46:07;;;;;;;22.27;18.62;;;25.50;99.90;;;;;;1825851;77;21109;-81
2021/06/10 10:48:37;;;;;;;19.17;15.68;;;25.60;99.90;;;;;;1835185;77;21162;-80
2021/06/10 10:51:36;;;;;;;18.67;16.77;;;25.70;99.90;;;;;;1841348;77;21129;-78
2021/06/10 10:54:11;;;;;;;20.20;18.05;;;25.70;99.90;;;;;;1843354;76;21985;-77
2021/06/10 10:56:37;;;;;;;23.87;16.37;;;25.70;99.90;;;;;;1830506;77;21110;-77
2021/06/10 10:59:18;;;;;;;19.60;15.23;;;25.70;99.90;;;;;;1830094;76;21110;-77
2021/06/10 11:02:07;;;;;;;18.57;16.23;;;25.80;99.90;;;;;;1844369;76;21097;-77
2021/06/10 11:04:55;;;;;;;20.82;16.85;;;25.80;99.90;;;;;;1828666;76;21509;-80
2021/06/10 11:07:41;;;;;;;15.80;13.95;;;25.80;99.90;;;;;;1836750;76;21634;-75
2021/06/10 11:10:19;;;;;;;16.12;12.18;;;25.70;99.90;;;;;;1847639;76;21203;-76
2021/06/10 11:12:50;;;;;;;17.60;13.95;;;25.70;99.90;;;;;;1852253;76;21106;-77
2021/06/10 11:15:29;;;;;;;13.78;11.50;;;25.80;99.90;;;;;;1836622;76;21650;-75
2021/06/10 11:18:01;;;;;;;13.13;10.18;;;25.80;99.60;;;;;;1832229;76;21192;-75
2021/06/10 11:20:42;;;;;;;12.40;9.45;;;25.70;99.50;;;;;;1823605;76;21271;-79
2021/06/10 11:23:17;;;;;;;10.35;7.80;;;25.80;99.40;;;;;;1822855;76;21659;-78
2021/06/10 11:25:52;;;;;;;7.78;6.03;;;25.90;99.70;;;;;;1834469;76;21090;-79
2021/06/10 11:28:21;;;;;;;7.95;7.12;;;26.00;99.40;;;;;;1835244;76;21219;-76
2021/06/10 11:30:51;;;;;;;10.60;8.15;;;26.10;98.10;;;;;;1844455;76;21078;-75
2021/06/10 11:33:22;;;;;;;10.48;6.80;;;26.10;96.90;;;;;;1841943;76;21074;-76
2021/06/10 11:36:07;;;;;;;12.23;6.87;;;26.20;96.90;;;;;;1847278;76;21149;-75
2021/06/10 11:38:42;;;;;;;9.63;7.10;;;26.30;98.00;;;;;;1836431;78;21713;-75
2021/06/10 11:41:13;;;;;;;10.40;6.40;;;26.30;95.50;;;;;;1848060;76;21168;-74
2021/06/10 11:43:46;;;;;;;8.90;5.08;;;26.30;95.40;;;;;;1833740;76;21085;-75
2021/06/10 11:46:17;;;;;;;9.05;5.90;;;26.40;96.40;;;;;;1840352;78;21071;-75
2021/06/10 11:48:54;;;;;;;11.28;4.50;;;26.40;97.00;;;;;;1844387;76;21697;-74
2021/06/10 11:51:21;;;;;;;10.32;6.17;;;26.60;97.00;;;;;;1839328;76;21088;-73
2021/06/10 11:53:50;;;;;;;8.25;5.42;;;26.60;96.30;;;;;;1840131;76;21717;-74
2021/06/10 11:56:29;;;;;;;8.43;6.15;;;26.60;95.90;;;;;;1850131;76;21098;-76
2021/06/10 11:59:02;;;;;;;6.22;4.87;;;26.50;93.80;;;;;;1845675;76;21129;-76
2021/06/10 12:01:26;;;;;;;7.58;3.77;;;26.60;94.80;;;;;;1838141;76;21211;-76
2021/06/10 12:03:54;;;;;;;6.15;3.62;;;26.60;95.80;;;;;;1840016;76;21151;-76
2021/06/10 12:06:22;;;;;;;6.78;4.72;;;26.60;95.10;;;;;;1830967;78;21238;-75
2021/06/10 12:08:49;;;;;;;10.13;4.80;;;26.60;94.60;;;;;;1835467;75;21118;-76
2021/06/10 12:11:18;;;;;;;8.88;4.72;;;26.60;94.40;;;;;;1828000;76;21130;-77
2021/06/10 12:13:47;;;;;;;4.97;3.65;;;26.60;93.90;;;;;;1836062;76;21666;-77
2021/06/10 12:16:21;;;;;;;5.25;4.05;;;26.60;94.20;;;;;;1846502;76;21079;-76
2021/06/10 12:18:48;;;;;;;4.75;3.37;;;26.60;94.20;;;;;;1834388;77;21129;-77
2021/06/10 12:21:19;;;;;;;7.70;3.55;;;26.60;93.90;;;;;;1836016;78;21150;-76
2021/06/10 12:23:49;;;;;;;4.33;2.90;;;26.60;94.20;;;;;;1837384;76;21128;-77
2021/06/10 12:26:22;;;;;;;7.25;4.33;;;26.60;93.70;;;;;;1839957;76;21161;-78
2021/06/10 12:28:59;;;;;;;6.37;4.25;;;26.60;92.60;;;;;;1832557;76;21118;-76
2021/06/10 12:31:37;;;;;;;5.40;3.50;;;26.60;93.70;;;;;;1832612;78;21069;-77
2021/06/10 12:34:07;;;;;;;6.00;2.47;;;26.70;93.30;;;;;;1842089;77;21070;-78
2021/06/10 12:36:36;;;;;;;8.05;4.55;;;26.80;94.80;;;;;;1853113;76;21078;-77
2021/06/10 12:39:16;;;;;;;5.47;3.33;;;26.80;91.30;;;;;;1842362;76;21607;-77
2021/06/10 12:41:49;;;;;;;6.72;2.83;;;26.70;91.30;;;;;;1840563;76;21159;-76
2021/06/10 12:44:31;;;;;;;5.03;2.55;;;26.80;92.30;;;;;;1848240;76;21106;-77